Cdry Blue — ICOB — position and weather

sailwx.info

Track history (hours):
 
Tides and Currents Weather Stations Pressure Air Temp Water Temp Dewpoint Dewpoint Depression Visibility Wind Speed Wind Dir Waves Ship Positions

Cdry Blue

Last reported at 2018-Jun-13 15:38 UTC. Time now 2018-Jun-25 05:52 UTC.
Position N 38°20' E 022°40'.
Warning: this ship's position is 11 days out of date.

Length 108 m; draft 7 m.

Type: Cargo ship. MMSI: 247289300.

Date/timePositionNaut miles runAvg speedWind from/ knotsBaromVisibWave heightAir tempDewpointWater temp
2018-Jun-13 15:38N 38°20' E 022°40'18 9.0
2018-Jun-13 13:39N 38°09' E 022°57'  
2018-Jun-10 17:39N 37°52' E 015°53'210.3
2018-Jun-10 17:26N 37°52' E 015°50'910.0
2018-Jun-10 16:34N 37°55' E 015°40'210.6
2018-Jun-10 16:25N 37°56' E 015°39'410.6
2018-Jun-10 16:00N 37°60' E 015°36'611.8
2018-Jun-10 15:30N 38°06' E 015°35'611.1
2018-Jun-10 15:01N 38°11' E 015°36'8 8.1
2018-Jun-10 14:01N 38°19' E 015°38'611.4
2018-Jun-10 13:31N 38°23' E 015°33'1110.9
2018-Jun-10 12:31N 38°31' E 015°23'110.7
2018-Jun-10 12:27N 38°32' E 015°23'54511.0
2018-Jun-08 10:57N 43°11' E 005°04'510.7
2018-Jun-08 10:31N 43°14' E 005°00'611.3
2018-Jun-08 10:00N 43°20' E 004°58'5 9.6
2018-Jun-08 09:30N 43°24' E 004°55'2 2.7
2018-Jun-08 08:47N 43°26' E 004°53'0 0.0
2018-Jun-08 08:20N 43°26' E 004°53'0 0.0
2018-Jun-08 07:44N 43°26' E 004°53'0 0.0
2018-Jun-08 07:14N 43°26' E 004°53'0 0.0
2018-Jun-08 06:38N 43°26' E 004°53'0 0.0
2018-Jun-08 06:20N 43°26' E 004°53'0 0.0
2018-Jun-08 05:56N 43°26' E 004°53'0 0.0
2018-Jun-08 05:26N 43°26' E 004°53'0 0.0
2018-Jun-08 04:59N 43°26' E 004°53'0 0.0
2018-Jun-08 04:26N 43°26' E 004°53'0 0.0
2018-Jun-08 03:53N 43°26' E 004°53'0 0.0
2018-Jun-08 03:26N 43°26' E 004°53'0 0.0
2018-Jun-08 02:56N 43°26' E 004°53'0 0.0
2018-Jun-08 02:26N 43°26' E 004°53'0 0.0
2018-Jun-08 01:56N 43°26' E 004°53'0 0.0
2018-Jun-08 01:26N 43°26' E 004°53'0 0.0
2018-Jun-08 00:59N 43°26' E 004°53'0 0.0
2018-Jun-08 00:29N 43°26' E 004°53'0 0.0
2018-Jun-07 23:56N 43°26' E 004°53'0 0.0
2018-Jun-07 23:29N 43°26' E 004°53'0 0.0
2018-Jun-07 22:59N 43°26' E 004°53'0 0.0
2018-Jun-07 22:29N 43°26' E 004°53'0 0.0
2018-Jun-07 21:59N 43°26' E 004°53'0 0.0
2018-Jun-07 21:29N 43°26' E 004°53'0 0.0
2018-Jun-07 20:59N 43°26' E 004°53'0 0.0
2018-Jun-07 20:29N 43°26' E 004°53'0 0.0
2018-Jun-07 19:59N 43°26' E 004°53'0 0.0
2018-Jun-07 19:29N 43°26' E 004°53'0 0.0
2018-Jun-07 18:59N 43°26' E 004°53'0 0.0
2018-Jun-07 18:29N 43°26' E 004°53'0 0.0
2018-Jun-07 17:59N 43°26' E 004°53'0 0.0
2018-Jun-07 17:29N 43°26' E 004°53'0 0.0
2018-Jun-07 16:59N 43°26' E 004°53'0 0.0
2018-Jun-07 16:26N 43°26' E 004°53'0 0.0
2018-Jun-07 15:59N 43°26' E 004°53'0 0.0
2018-Jun-07 15:29N 43°26' E 004°53'0 0.0
2018-Jun-07 14:59N 43°26' E 004°53'0 0.0
2018-Jun-07 14:29N 43°26' E 004°53'0 0.0
2018-Jun-07 13:59N 43°26' E 004°53'0 0.0
2018-Jun-07 13:29N 43°26' E 004°53'0 0.0
2018-Jun-07 12:59N 43°26' E 004°53'0 0.0
2018-Jun-07 12:29N 43°26' E 004°53'0 0.0
2018-Jun-07 11:59N 43°26' E 004°53'0 0.0
2018-Jun-07 11:29N 43°26' E 004°53'0 0.0
2018-Jun-07 10:59N 43°26' E 004°53'0 0.0
2018-Jun-07 10:26N 43°26' E 004°53'0 0.0
2018-Jun-07 09:59N 43°26' E 004°53'0 0.0
2018-Jun-07 09:29N 43°26' E 004°53'0 0.0
2018-Jun-07 08:59N 43°26' E 004°53'0 0.0
2018-Jun-07 08:29N 43°26' E 004°53'0 0.0
2018-Jun-07 07:59N 43°26' E 004°53'0 0.0
2018-Jun-07 02:49N 43°26' E 004°53'1 2.9
2018-Jun-07 02:30N 43°25' E 004°53'2 0.1
2018-Jun-06 10:00N 43°25' E 004°55'0 0.0
2018-Jun-06 07:51N 43°25' E 004°55'0 0.0
2018-Jun-06 07:27N 43°25' E 004°55'0 0.0
2018-Jun-06 07:00N 43°25' E 004°55'0 0.0
2018-Jun-06 06:30N 43°25' E 004°55'0 0.0
2018-Jun-06 06:00N 43°25' E 004°55'0 0.0
2018-Jun-06 05:30N 43°25' E 004°55'0 0.0
2018-Jun-06 04:57N 43°25' E 004°55'0 0.0
2018-Jun-06 04:30N 43°25' E 004°55'0 0.0
2018-Jun-06 04:00N 43°25' E 004°55'0 0.0
2018-Jun-06 03:27N 43°25' E 004°55'0 0.0
2018-Jun-06 03:00N 43°25' E 004°55'0 0.0
2018-Jun-06 02:30N 43°25' E 004°55'0 0.0
2018-Jun-06 02:00N 43°25' E 004°55'0 0.0
2018-Jun-06 01:30N 43°25' E 004°55'0 0.0
2018-Jun-06 00:57N 43°25' E 004°55'0 0.0
2018-Jun-06 00:30N 43°25' E 004°55'0 0.0
2018-Jun-06 00:00N 43°25' E 004°55'0 0.0
2018-Jun-05 23:24N 43°25' E 004°55'0 0.0
2018-Jun-05 23:00N 43°25' E 004°55'0 0.0
2018-Jun-05 22:30N 43°25' E 004°55'0 0.0
2018-Jun-05 21:57N 43°25' E 004°55'0 0.1
2018-Jun-05 21:27N 43°25' E 004°55'0 0.0
2018-Jun-05 20:57N 43°25' E 004°55'0 0.0
2018-Jun-05 20:30N 43°25' E 004°55'0 0.0
2018-Jun-05 20:00N 43°25' E 004°55'0 0.0
2018-Jun-05 19:30N 43°25' E 004°55'0 0.0
2018-Jun-05 19:00N 43°25' E 004°55'0 0.0
2018-Jun-05 18:30N 43°25' E 004°55'0 0.1
2018-Jun-05 18:00N 43°25' E 004°55'0 0.0
2018-Jun-05 17:30N 43°25' E 004°55'0 0.0
2018-Jun-05 17:00N 43°25' E 004°55'0 0.0
2018-Jun-05 16:30N 43°25' E 004°55'0 0.0
2018-Jun-05 16:00N 43°25' E 004°55'0 0.0
2018-Jun-05 15:27N 43°25' E 004°55'0 0.0
2018-Jun-05 15:00N 43°25' E 004°55'0 0.0
2018-Jun-05 14:24N 43°25' E 004°55'0 0.1
2018-Jun-05 13:54N 43°25' E 004°55'0 0.0
2018-Jun-05 13:30N 43°25' E 004°55'0 0.0
2018-Jun-05 13:00N 43°25' E 004°55'0 0.0
2018-Jun-05 12:30N 43°25' E 004°55'0 0.0
2018-Jun-05 12:00N 43°25' E 004°55'0 0.0
2018-Jun-05 11:30N 43°25' E 004°55'0 0.0
2018-Jun-05 11:00N 43°25' E 004°55'0 0.0
2018-Jun-05 10:30N 43°25' E 004°55'0 0.0
2018-Jun-05 10:00N 43°25' E 004°55'0 0.0
2018-Jun-05 09:30N 43°25' E 004°55'0 0.0
2018-Jun-05 09:00N 43°25' E 004°55'0 0.0
2018-Jun-05 08:27N 43°25' E 004°55'0 0.0
2018-Jun-05 08:00N 43°25' E 004°55'0 0.0
2018-Jun-05 07:30N 43°25' E 004°55'0 0.1
2018-Jun-05 07:00N 43°25' E 004°55'0 0.1
2018-Jun-05 06:30N 43°25' E 004°55'4 8.1
2018-Jun-05 06:00N 43°21' E 004°58'4 7.1
2018-Jun-05 05:30N 43°18' E 004°60'14412.1
2018-Jun-04 17:35N 41°34' E 002°45'213.4
2018-Jun-04 17:27N 41°33' E 002°44'1713.4
2018-Jun-04 16:13N 41°23' E 002°26'313.6
2018-Jun-04 16:01N 41°21' E 002°23'713.4
2018-Jun-04 15:31N 41°17' E 002°15'713.2
2018-Jun-04 15:01N 41°14' E 002°08'713.1
2018-Jun-04 14:30N 41°12' E 001°60'713.1
2018-Jun-04 14:00N 41°09' E 001°52'612.9
2018-Jun-04 13:30N 41°07' E 001°43'  
Track history (hours):
 
Tides and Currents Weather Stations Pressure Air Temp Water Temp Dewpoint Dewpoint Depression Visibility Wind Speed Wind Dir Waves Ship Positions

Cdry Blue

Last reported at 2018-Jun-13 15:38 UTC. Time now 2018-Jun-25 05:52 UTC.
Position N 38°20' E 022°40'.
Warning: this ship's position is 11 days out of date.

Length 108 m; draft 7 m.

Type: Cargo ship. MMSI: 247289300.

Date/timePositionNaut miles runAvg speedWind from/ knotsBaromVisibWave heightAir tempDewpointWater temp
2018-Jun-13 15:38N 38°20' E 022°40'18 9.0
2018-Jun-13 13:39N 38°09' E 022°57'  
2018-Jun-10 17:39N 37°52' E 015°53'210.3
2018-Jun-10 17:26N 37°52' E 015°50'910.0
2018-Jun-10 16:34N 37°55' E 015°40'210.6
2018-Jun-10 16:25N 37°56' E 015°39'410.6
2018-Jun-10 16:00N 37°60' E 015°36'611.8
2018-Jun-10 15:30N 38°06' E 015°35'611.1
2018-Jun-10 15:01N 38°11' E 015°36'8 8.1
2018-Jun-10 14:01N 38°19' E 015°38'611.4
2018-Jun-10 13:31N 38°23' E 015°33'1110.9
2018-Jun-10 12:31N 38°31' E 015°23'110.7
2018-Jun-10 12:27N 38°32' E 015°23'54511.0
2018-Jun-08 10:57N 43°11' E 005°04'510.7
2018-Jun-08 10:31N 43°14' E 005°00'611.3
2018-Jun-08 10:00N 43°20' E 004°58'5 9.6
2018-Jun-08 09:30N 43°24' E 004°55'2 2.7
2018-Jun-08 08:47N 43°26' E 004°53'0 0.0
2018-Jun-08 08:20N 43°26' E 004°53'0 0.0
2018-Jun-08 07:44N 43°26' E 004°53'0 0.0
2018-Jun-08 07:14N 43°26' E 004°53'0 0.0
2018-Jun-08 06:38N 43°26' E 004°53'0 0.0
2018-Jun-08 06:20N 43°26' E 004°53'0 0.0
2018-Jun-08 05:56N 43°26' E 004°53'0 0.0
2018-Jun-08 05:26N 43°26' E 004°53'0 0.0
2018-Jun-08 04:59N 43°26' E 004°53'0 0.0
2018-Jun-08 04:26N 43°26' E 004°53'0 0.0
2018-Jun-08 03:53N 43°26' E 004°53'0 0.0
2018-Jun-08 03:26N 43°26' E 004°53'0 0.0
2018-Jun-08 02:56N 43°26' E 004°53'0 0.0
2018-Jun-08 02:26N 43°26' E 004°53'0 0.0
2018-Jun-08 01:56N 43°26' E 004°53'0 0.0
2018-Jun-08 01:26N 43°26' E 004°53'0 0.0
2018-Jun-08 00:59N 43°26' E 004°53'0 0.0
2018-Jun-08 00:29N 43°26' E 004°53'0 0.0
2018-Jun-07 23:56N 43°26' E 004°53'0 0.0
2018-Jun-07 23:29N 43°26' E 004°53'0 0.0
2018-Jun-07 22:59N 43°26' E 004°53'0 0.0
2018-Jun-07 22:29N 43°26' E 004°53'0 0.0
2018-Jun-07 21:59N 43°26' E 004°53'0 0.0
2018-Jun-07 21:29N 43°26' E 004°53'0 0.0
2018-Jun-07 20:59N 43°26' E 004°53'0 0.0
2018-Jun-07 20:29N 43°26' E 004°53'0 0.0
2018-Jun-07 19:59N 43°26' E 004°53'0 0.0
2018-Jun-07 19:29N 43°26' E 004°53'0 0.0
2018-Jun-07 18:59N 43°26' E 004°53'0 0.0
2018-Jun-07 18:29N 43°26' E 004°53'0 0.0
2018-Jun-07 17:59N 43°26' E 004°53'0 0.0
2018-Jun-07 17:29N 43°26' E 004°53'0 0.0
2018-Jun-07 16:59N 43°26' E 004°53'0 0.0
2018-Jun-07 16:26N 43°26' E 004°53'0 0.0
2018-Jun-07 15:59N 43°26' E 004°53'0 0.0
2018-Jun-07 15:29N 43°26' E 004°53'0 0.0
2018-Jun-07 14:59N 43°26' E 004°53'0 0.0
2018-Jun-07 14:29N 43°26' E 004°53'0 0.0
2018-Jun-07 13:59N 43°26' E 004°53'0 0.0
2018-Jun-07 13:29N 43°26' E 004°53'0 0.0
2018-Jun-07 12:59N 43°26' E 004°53'0 0.0
2018-Jun-07 12:29N 43°26' E 004°53'0 0.0
2018-Jun-07 11:59N 43°26' E 004°53'0 0.0
2018-Jun-07 11:29N 43°26' E 004°53'0 0.0
2018-Jun-07 10:59N 43°26' E 004°53'0 0.0
2018-Jun-07 10:26N 43°26' E 004°53'0 0.0
2018-Jun-07 09:59N 43°26' E 004°53'0 0.0
2018-Jun-07 09:29N 43°26' E 004°53'0 0.0
2018-Jun-07 08:59N 43°26' E 004°53'0 0.0
2018-Jun-07 08:29N 43°26' E 004°53'0 0.0
2018-Jun-07 07:59N 43°26' E 004°53'0 0.0
2018-Jun-07 02:49N 43°26' E 004°53'1 2.9
2018-Jun-07 02:30N 43°25' E 004°53'2 0.1
2018-Jun-06 10:00N 43°25' E 004°55'0 0.0
2018-Jun-06 07:51N 43°25' E 004°55'0 0.0
2018-Jun-06 07:27N 43°25' E 004°55'0 0.0
2018-Jun-06 07:00N 43°25' E 004°55'0 0.0
2018-Jun-06 06:30N 43°25' E 004°55'0 0.0
2018-Jun-06 06:00N 43°25' E 004°55'0 0.0
2018-Jun-06 05:30N 43°25' E 004°55'0 0.0
2018-Jun-06 04:57N 43°25' E 004°55'0 0.0
2018-Jun-06 04:30N 43°25' E 004°55'0 0.0
2018-Jun-06 04:00N 43°25' E 004°55'0 0.0
2018-Jun-06 03:27N 43°25' E 004°55'0 0.0
2018-Jun-06 03:00N 43°25' E 004°55'0 0.0
2018-Jun-06 02:30N 43°25' E 004°55'0 0.0
2018-Jun-06 02:00N 43°25' E 004°55'0 0.0
2018-Jun-06 01:30N 43°25' E 004°55'0 0.0
2018-Jun-06 00:57N 43°25' E 004°55'0 0.0
2018-Jun-06 00:30N 43°25' E 004°55'0 0.0
2018-Jun-06 00:00N 43°25' E 004°55'0 0.0
2018-Jun-05 23:24N 43°25' E 004°55'0 0.0
2018-Jun-05 23:00N 43°25' E 004°55'0 0.0
2018-Jun-05 22:30N 43°25' E 004°55'0 0.0
2018-Jun-05 21:57N 43°25' E 004°55'0 0.1
2018-Jun-05 21:27N 43°25' E 004°55'0 0.0
2018-Jun-05 20:57N 43°25' E 004°55'0 0.0
2018-Jun-05 20:30N 43°25' E 004°55'0 0.0
2018-Jun-05 20:00N 43°25' E 004°55'0 0.0
2018-Jun-05 19:30N 43°25' E 004°55'0 0.0
2018-Jun-05 19:00N 43°25' E 004°55'0 0.0
2018-Jun-05 18:30N 43°25' E 004°55'0 0.1
2018-Jun-05 18:00N 43°25' E 004°55'0 0.0
2018-Jun-05 17:30N 43°25' E 004°55'0 0.0
2018-Jun-05 17:00N 43°25' E 004°55'0 0.0
2018-Jun-05 16:30N 43°25' E 004°55'0 0.0
2018-Jun-05 16:00N 43°25' E 004°55'0 0.0
2018-Jun-05 15:27N 43°25' E 004°55'0 0.0
2018-Jun-05 15:00N 43°25' E 004°55'0 0.0
2018-Jun-05 14:24N 43°25' E 004°55'0 0.1
2018-Jun-05 13:54N 43°25' E 004°55'0 0.0
2018-Jun-05 13:30N 43°25' E 004°55'0 0.0
2018-Jun-05 13:00N 43°25' E 004°55'0 0.0
2018-Jun-05 12:30N 43°25' E 004°55'0 0.0
2018-Jun-05 12:00N 43°25' E 004°55'0 0.0
2018-Jun-05 11:30N 43°25' E 004°55'0 0.0
2018-Jun-05 11:00N 43°25' E 004°55'0 0.0
2018-Jun-05 10:30N 43°25' E 004°55'0 0.0
2018-Jun-05 10:00N 43°25' E 004°55'0 0.0
2018-Jun-05 09:30N 43°25' E 004°55'0 0.0
2018-Jun-05 09:00N 43°25' E 004°55'0 0.0
2018-Jun-05 08:27N 43°25' E 004°55'0 0.0
2018-Jun-05 08:00N 43°25' E 004°55'0 0.0
2018-Jun-05 07:30N 43°25' E 004°55'0 0.1
2018-Jun-05 07:00N 43°25' E 004°55'0 0.1
2018-Jun-05 06:30N 43°25' E 004°55'4 8.1
2018-Jun-05 06:00N 43°21' E 004°58'4 7.1
2018-Jun-05 05:30N 43°18' E 004°60'14412.1
2018-Jun-04 17:35N 41°34' E 002°45'213.4
2018-Jun-04 17:27N 41°33' E 002°44'1713.4
2018-Jun-04 16:13N 41°23' E 002°26'313.6
2018-Jun-04 16:01N 41°21' E 002°23'713.4
2018-Jun-04 15:31N 41°17' E 002°15'713.2
2018-Jun-04 15:01N 41°14' E 002°08'713.1
2018-Jun-04 14:30N 41°12' E 001°60'713.1
2018-Jun-04 14:00N 41°09' E 001°52'612.9
2018-Jun-04 13:30N 41°07' E 001°43'  

Dump ship's entire track history